Iizuka, Japan
Current Conditions -  °F | °C
As of 2:00 AM on Sunday 26 Oct 2014 (Local Time) from RJFF Reporting Station
Clear Clear  
Wind Chill: 59°   Ceiling: Unl
Heat Index: 59°   Visibility: 6mi
Dew Point: 55°   Wind: 2mph
Humidity: 88%   Direction: 130°SE
Pressure: 30.09"   Gusts: NA
Location:  33.64°N, 130.69°E
Report Text: RJFF 251700Z 13002KT CAVOK 15/13 Q1019
Loading
Personal Weather Stations






























Interactive Weather Map
Tropical Storm Tracking
New forecast layout! Learn more

10-Day Weather Forecast

Advertisements
Track Severe Weather on mobile